Time;durP1;ratioP1;P1;durP2;ratioP2;P2;SDS_P1;SDS_P2;PMS_P1;PMS_P2;Temp;Humidity;BMP_temperature;BMP_pressure;BME280_temperature;BME280_humidity;BME280_pressure;Samples;Min_cycle;Max_cycle;Signal;HPM_P1;HPM_P2
2022/01/10 00:00:34;;;;;;;30.55;15.73;;;;;;;7.32;91.87;99756.84;4992180;28;20160;-82
2022/01/10 00:03:00;;;;;;;28.85;15.75;;;;;;;7.29;92.30;99765.84;5002786;28;20177;-83
2022/01/10 00:05:26;;;;;;;31.05;14.95;;;;;;;7.14;92.26;99725.53;4997499;28;20209;-83
2022/01/10 00:07:52;;;;;;;28.33;15.63;;;;;;;7.32;92.15;99753.38;4996814;28;20204;-82
2022/01/10 00:10:18;;;;;;;29.23;15.45;;;;;;;6.90;92.17;99677.50;4997254;28;20674;-83
2022/01/10 00:12:44;;;;;;;28.83;15.63;;;;;;;6.98;92.04;99698.53;5004857;28;20174;-82
2022/01/10 00:15:11;;;;;;;28.85;14.80;;;;;;;7.34;91.82;99749.34;5012950;28;20197;-82
2022/01/10 00:17:38;;;;;;;29.63;16.15;;;;;;;6.49;91.78;99590.69;5004561;28;20251;-81
2022/01/10 00:20:08;;;;;;;31.10;16.42;;;;;;;7.22;92.06;99721.09;5006655;28;20177;-81
2022/01/10 00:22:35;;;;;;;33.83;15.98;;;;;;;7.34;92.08;99737.47;5006355;28;20197;-79
2022/01/10 00:25:00;;;;;;;33.85;17.25;;;;;;;7.33;92.98;99742.47;5004849;28;20177;-82
2022/01/10 00:27:26;;;;;;;32.65;17.35;;;;;;;7.30;93.23;99732.88;5003861;28;20177;-80
2022/01/10 00:29:51;;;;;;;35.38;17.75;;;;;;;6.83;93.59;99660.78;4986387;28;20181;-82
2022/01/10 00:32:17;;;;;;;36.88;19.23;;;;;;;7.20;94.17;99720.09;5000609;28;20276;-84
2022/01/10 00:34:43;;;;;;;43.15;18.70;;;;;;;6.39;93.82;99585.56;4998400;28;20304;-83
2022/01/10 00:37:09;;;;;;;39.10;19.90;;;;;;;6.91;94.61;99675.06;5000884;28;20236;-81
2022/01/10 00:39:34;;;;;;;45.67;21.20;;;;;;;7.24;95.21;99734.88;4985393;28;20181;-84
2022/01/10 00:42:00;;;;;;;45.85;20.45;;;;;;;7.23;95.93;99737.28;4997486;28;20642;-83
2022/01/10 00:44:27;;;;;;;51.88;21.25;;;;;;;6.99;95.78;99692.72;4978985;28;20205;-84
2022/01/10 00:46:53;;;;;;;49.90;23.05;;;;;;;7.12;95.99;99715.97;4997154;28;20662;-84
2022/01/10 00:49:19;;;;;;;50.80;24.15;;;;;;;7.20;96.65;99730.28;4996552;28;20191;-83
2022/01/10 00:51:45;;;;;;;56.58;25.50;;;;;;;6.66;97.08;99638.00;4998246;28;20204;-84
2022/01/10 00:54:11;;;;;;;56.50;25.25;;;;;;;7.08;97.40;99716.47;5001400;28;20732;-83
2022/01/10 00:56:36;;;;;;;57.83;26.40;;;;;;;7.09;97.92;99721.66;5005414;28;20187;-83
2022/01/10 00:59:02;;;;;;;65.45;26.30;;;;;;;7.15;98.45;99723.88;5013533;28;20258;-81
2022/01/10 01:01:28;;;;;;;64.07;26.48;;;;;;;7.15;98.99;99728.97;5014251;28;20184;-83
2022/01/10 01:03:55;;;;;;;63.88;25.33;;;;;;;7.14;99.29;99728.06;5014551;28;20240;-83
2022/01/10 01:06:20;;;;;;;55.03;24.85;;;;;;;7.16;98.99;99724.03;4995569;28;20791;-83
2022/01/10 01:08:46;;;;;;;61.28;24.52;;;;;;;6.97;99.17;99686.56;4994350;28;20169;-81
2022/01/10 01:13:57;;;;;;;63.72;25.45;;;;;;;7.17;98.88;99722.38;5011876;28;20202;-82
2022/01/10 01:16:44;;;;;;;58.80;25.92;;;;;;;6.90;98.55;99672.41;4985936;28;20169;-85
2022/01/10 01:24:24;;;;;;;62.45;25.23;;;;;;;7.22;99.68;99722.75;4995648;28;20205;-84
2022/01/10 01:26:51;;;;;;;59.80;24.45;;;;;;;7.22;99.36;99710.91;4998648;28;20209;-84
2022/01/10 01:29:21;;;;;;;58.25;24.35;;;;;;;7.13;99.61;99697.34;5015539;28;20177;-83
2022/01/10 01:31:47;;;;;;;60.47;23.65;;;;;;;7.14;100.00;99707.69;5014610;28;20177;-84
2022/01/10 01:34:15;;;;;;;55.30;22.85;;;;;;;7.25;99.85;99717.94;5013973;28;20169;-84
2022/01/10 01:36:47;;;;;;;62.28;23.83;;;;;;;7.26;99.87;99719.72;5017067;28;20173;-80
2022/01/10 01:39:23;;;;;;;53.20;22.65;;;;;;;7.25;99.94;99712.84;5017502;28;20181;-83
2022/01/10 01:42:05;;;;;;;51.60;22.65;;;;;;;7.26;99.37;99709.53;5017056;28;20188;-83
2022/01/10 01:44:32;;;;;;;47.60;22.50;;;;;;;7.28;99.88;99708.03;5016266;28;20158;-83
2022/01/10 01:46:58;;;;;;;54.08;23.08;;;;;;;7.30;99.29;99706.50;5003219;28;20232;-85
2022/01/10 01:49:24;;;;;;;51.30;24.33;;;;;;;7.33;99.05;99704.22;4994753;28;20265;-84
2022/01/10 01:51:50;;;;;;;50.55;23.10;;;;;;;7.30;99.62;99701.41;4994519;28;20184;-84
2022/01/10 01:54:17;;;;;;;59.22;24.45;;;;;;;7.30;99.67;99706.50;4994936;28;20177;-86
2022/01/10 01:56:44;;;;;;;58.92;24.02;;;;;;;7.31;99.39;99706.63;4995311;28;20209;-85
2022/01/10 01:59:09;;;;;;;54.10;22.63;;;;;;;7.09;99.78;99670.72;4977211;28;20193;-85
2022/01/10 02:01:35;;;;;;;52.90;20.67;;;;;;;6.85;99.31;99621.09;4995048;28;20185;-85
2022/01/10 02:04:01;;;;;;;47.90;21.85;;;;;;;7.33;99.99;99712.78;4995133;28;20181;-84
2022/01/10 02:06:26;;;;;;;49.75;21.00;;;;;;;6.93;99.70;99645.56;4995800;28;20232;-85
2022/01/10 02:08:52;;;;;;;51.65;22.52;;;;;;;7.27;99.66;99690.94;4999543;28;20181;-83
2022/01/10 02:11:19;;;;;;;46.45;20.20;;;;;;;7.34;99.20;99704.34;5002599;28;20232;-84
2022/01/10 02:13:45;;;;;;;52.15;21.65;;;;;;;7.35;99.83;99702.69;4980787;28;20177;-84
2022/01/10 02:16:16;;;;;;;59.20;24.58;;;;;;;7.35;100.00;99706.16;4999091;28;20173;-82
2022/01/10 02:18:42;;;;;;;56.20;21.08;;;;;;;7.34;100.00;99712.00;4982429;28;20594;-83
2022/01/10 02:21:09;;;;;;;47.80;23.63;;;;;;;7.05;99.93;99666.13;4984428;28;20204;-85
2022/01/10 02:23:37;;;;;;;47.72;22.10;;;;;;;7.37;100.00;99721.56;5004434;28;20181;-83
2022/01/10 02:26:03;;;;;;;47.08;22.00;;;;;;;7.27;100.00;99706.25;5004904;28;20279;-84
2022/01/10 02:28:28;;;;;;;44.28;20.75;;;;;;;6.99;99.41;99665.59;4987507;28;20193;-83
2022/01/10 02:30:57;;;;;;;45.05;21.50;;;;;;;7.35;99.81;99726.56;5004943;28;20193;-86
2022/01/10 02:33:30;;;;;;;47.08;19.40;;;;;;;7.29;100.00;99717.44;5005451;28;20173;-84
2022/01/10 02:36:23;;;;;;;45.03;21.25;;;;;;;7.23;99.87;99709.25;5003841;28;20195;-85
2022/01/10 02:38:55;;;;;;;44.33;21.27;;;;;;;7.15;99.97;99700.94;5000667;28;20217;-83
2022/01/10 02:41:42;;;;;;;50.28;20.88;;;;;;;7.36;99.65;99743.63;5001312;28;20172;-84
2022/01/10 02:44:11;;;;;;;41.47;19.85;;;;;;;6.82;99.83;99642.81;5004389;28;20180;-83
2022/01/10 02:46:38;;;;;;;50.55;21.42;;;;;;;7.40;99.65;99742.22;5018933;28;20219;-83
2022/01/10 02:49:09;;;;;;;57.40;23.10;;;;;;;7.17;100.00;99709.63;5021703;28;20166;-84
2022/01/10 02:51:34;;;;;;;42.10;20.85;;;;;;;7.41;99.89;99746.56;5021654;28;20230;-82
2022/01/10 02:54:00;;;;;;;45.90;19.80;;;;;;;7.42;100.00;99747.47;5021684;28;20173;-82
2022/01/10 02:56:25;;;;;;;44.00;19.60;;;;;;;7.42;100.00;99743.28;5020189;28;20173;-81
2022/01/10 02:58:51;;;;;;;45.30;19.95;;;;;;;7.44;99.81;99745.94;5021393;28;20161;-81
2022/01/10 03:01:16;;;;;;;42.17;19.98;;;;;;;7.42;100.00;99747.47;5021532;28;20205;-83
2022/01/10 03:03:42;;;;;;;44.72;18.90;;;;;;;7.37;100.00;99724.13;5021351;28;20169;-83
2022/01/10 03:06:07;;;;;;;47.17;18.67;;;;;;;7.17;100.00;99700.34;5021243;28;20205;-82
2022/01/10 03:08:33;;;;;;;44.38;19.27;;;;;;;7.48;100.00;99750.56;5021268;28;20174;-82
2022/01/10 03:11:00;;;;;;;45.17;20.02;;;;;;;7.50;100.00;99752.47;5020805;28;20217;-84
2022/01/10 03:13:25;;;;;;;48.05;20.40;;;;;;;7.35;100.00;99729.09;5020934;28;20190;-84
2022/01/10 03:15:51;;;;;;;40.90;19.73;;;;;;;7.05;100.00;99683.97;5020653;28;20181;-83
2022/01/10 03:18:17;;;;;;;40.38;19.33;;;;;;;7.49;100.00;99748.13;5020304;28;20233;-84
2022/01/10 03:20:42;;;;;;;41.67;19.42;;;;;;;7.51;100.00;99759.38;4998899;28;20185;-83
2022/01/10 03:23:08;;;;;;;41.20;19.13;;;;;;;7.51;100.00;99749.19;5017236;28;20245;-83
2022/01/10 03:25:33;;;;;;;43.28;18.48;;;;;;;7.50;100.00;99747.38;5004189;28;20205;-84
2022/01/10 03:27:59;;;;;;;41.00;18.35;;;;;;;7.50;100.00;99742.28;4999412;28;20252;-84
2022/01/10 03:30:26;;;;;;;41.63;18.85;;;;;;;7.35;100.00;99715.44;4998866;28;20661;-86
2022/01/10 03:32:52;;;;;;;36.50;17.80;;;;;;;6.76;100.00;99612.63;4980007;28;20177;-85
2022/01/10 03:35:18;;;;;;;37.20;18.33;;;;;;;7.22;100.00;99694.75;4998975;28;20193;-82
2022/01/10 03:37:43;;;;;;;36.42;18.65;;;;;;;7.52;100.00;99756.06;5000263;28;20169;-85
2022/01/10 03:40:09;;;;;;;36.33;18.80;;;;;;;7.00;100.00;99675.00;5001711;28;20185;-84
2022/01/10 03:42:35;;;;;;;35.45;17.08;;;;;;;7.20;100.00;99706.47;5003243;28;20634;-83
2022/01/10 03:45:04;;;;;;;41.42;19.75;;;;;;;7.33;100.00;99737.34;4999188;28;20237;-83
2022/01/10 03:47:30;;;;;;;54.60;30.05;;;;;;;6.75;100.00;99636.28;5001173;28;20169;-84
2022/01/10 03:49:55;;;;;;;42.42;22.67;;;;;;;7.53;100.00;99783.31;5001330;28;20260;-83
2022/01/10 03:52:22;;;;;;;35.45;18.63;;;;;;;7.40;100.00;99752.44;4998586;28;20208;-83
2022/01/10 03:54:48;;;;;;;40.55;18.13;;;;;;;7.49;99.53;99773.63;4999328;28;20213;-82
2022/01/10 03:57:13;;;;;;;37.42;17.85;;;;;;;7.55;100.00;99786.03;5001660;28;20185;-83
2022/01/10 03:59:39;;;;;;;37.17;17.25;;;;;;;7.54;100.00;99790.25;5000575;28;20201;-84
2022/01/10 04:02:04;;;;;;;32.20;17.20;;;;;;;7.56;99.72;99795.47;4998611;28;20185;-84
2022/01/10 04:04:32;;;;;;;72.93;36.70;;;;;;;7.29;100.00;99745.47;4998224;28;20181;-85
2022/01/10 04:06:58;;;;;;;85.78;45.70;;;;;;;7.58;100.00;99792.28;4998154;28;20204;-84
2022/01/10 04:09:23;;;;;;;92.43;46.72;;;;;;;7.39;100.00;99763.38;4999440;28;20173;-82
2022/01/10 04:11:49;;;;;;;44.63;23.13;;;;;;;7.40;100.00;99765.16;4998193;28;20217;-83
2022/01/10 04:14:15;;;;;;;29.60;16.83;;;;;;;7.37;99.84;99754.69;4995034;28;20181;-85
2022/01/10 04:16:41;;;;;;;34.25;17.45;;;;;;;7.59;99.02;99801.72;4995139;28;20177;-85
2022/01/10 04:19:07;;;;;;;96.30;59.35;;;;;;;7.62;98.95;99807.09;4995402;28;20173;-86
2022/01/10 04:21:33;;;;;;;90.13;45.92;;;;;;;7.62;98.87;99812.19;4994763;28;20189;-84
2022/01/10 04:23:58;;;;;;;37.67;20.38;;;;;;;7.63;99.53;99803.81;4994733;28;20173;-84
2022/01/10 04:26:27;;;;;;;28.92;16.10;;;;;;;7.47;99.18;99782.78;4994619;28;20201;-85
2022/01/10 04:28:52;;;;;;;32.20;17.73;;;;;;;7.65;99.34;99806.47;4994599;28;20173;-83
2022/01/10 04:31:18;;;;;;;31.08;16.63;;;;;;;7.62;99.29;99822.38;4994518;28;20566;-84
2022/01/10 04:33:43;;;;;;;30.08;16.52;;;;;;;7.39;99.67;99778.69;4995389;28;20174;-85
2022/01/10 04:36:09;;;;;;;31.27;17.23;;;;;;;7.30;98.88;99765.13;4995500;28;20680;-85
2022/01/10 04:38:35;;;;;;;32.70;17.58;;;;;;;7.63;99.06;99824.19;4995069;28;20587;-85
2022/01/10 04:41:03;;;;;;;33.45;17.90;;;;;;;7.64;99.32;99820.88;4993680;28;20268;-84
2022/01/10 04:43:28;;;;;;;34.75;17.65;;;;;;;7.67;98.63;99827.03;4994520;28;20173;-83
2022/01/10 04:45:54;;;;;;;33.03;18.00;;;;;;;7.59;98.30;99808.47;4994120;28;20680;-83
2022/01/10 04:48:21;;;;;;;32.15;17.30;;;;;;;7.61;98.73;99815.50;4993605;28;20170;-80
2022/01/10 04:53:32;;;;;;;32.15;17.33;;;;;;;7.65;99.51;99826.88;4993830;28;20177;-81
2022/01/10 04:55:58;;;;;;;35.17;18.52;;;;;;;7.67;99.58;99821.91;4994740;28;20614;-83
2022/01/10 04:58:23;;;;;;;35.22;18.33;;;;;;;7.23;99.65;99758.59;4996262;28;20177;-84
2022/01/10 05:00:53;;;;;;;32.15;18.17;;;;;;;7.68;99.54;99826.25;4993673;28;20177;-82
2022/01/10 05:03:19;;;;;;;41.22;20.38;;;;;;;7.69;99.95;99821.25;4994426;28;20208;-81
2022/01/10 05:05:45;;;;;;;35.60;18.45;;;;;;;7.71;100.00;99818.88;4992625;28;20204;-80
2022/01/10 05:08:10;;;;;;;36.55;19.02;;;;;;;7.71;100.00;99826.53;4992904;28;20185;-81
2022/01/10 05:10:36;;;;;;;34.60;19.05;;;;;;;6.89;100.00;99704.63;4991825;28;20224;-80
2022/01/10 05:13:02;;;;;;;40.88;20.52;;;;;;;7.76;100.00;99832.94;4993434;28;20708;-83
2022/01/10 05:15:27;;;;;;;43.47;20.45;;;;;;;7.80;100.00;99833.31;4993319;28;20669;-83
2022/01/10 05:17:52;;;;;;;45.20;20.83;;;;;;;7.85;100.00;99832.09;4993302;28;20209;-83
2022/01/10 05:20:18;;;;;;;43.92;20.40;;;;;;;7.86;100.00;99836.41;4993140;28;20641;-83
2022/01/10 05:22:44;;;;;;;46.88;21.58;;;;;;;7.93;100.00;99844.59;4992772;28;20260;-84
2022/01/10 05:25:09;;;;;;;44.33;21.05;;;;;;;7.87;100.00;99828.00;4993069;28;20595;-83
2022/01/10 05:27:35;;;;;;;46.58;22.98;;;;;;;7.72;100.00;99797.69;4993077;28;20185;-81
2022/01/10 05:30:01;;;;;;;44.95;22.48;;;;;;;7.91;100.00;99829.16;4992888;28;20569;-82
2022/01/10 05:32:26;;;;;;;45.38;22.30;;;;;;;8.03;100.00;99837.00;4993237;28;20209;-85
2022/01/10 05:34:52;;;;;;;42.40;21.45;;;;;;;8.03;100.00;99839.53;4993443;28;20211;-83
2022/01/10 05:37:17;;;;;;;48.88;24.00;;;;;;;7.99;100.00;99832.41;4993995;28;20248;-84
2022/01/10 05:39:43;;;;;;;40.78;21.02;;;;;;;7.99;100.00;99827.28;4976349;28;20181;-87
2022/01/10 05:42:08;;;;;;;35.85;16.80;;;;;;;8.50;100.00;99840.25;4995110;28;20184;-83
2022/01/10 05:44:34;;;;;;;39.55;17.85;;;;;;;9.01;100.00;99853.09;4993176;28;20197;-81
2022/01/10 05:47:01;;;;;;;33.55;19.10;;;;;;;9.37;100.00;99849.25;4993993;28;20344;-85
2022/01/10 05:49:32;;;;;;;43.03;20.60;;;;;;;9.55;100.00;99850.75;4994053;28;20212;-84
2022/01/10 05:51:58;;;;;;;43.65;22.63;;;;;;;9.69;100.00;99840.00;4994063;28;20170;-85
2022/01/10 05:54:23;;;;;;;35.20;21.17;;;;;;;9.82;100.00;99836.75;4992710;28;20239;-84
2022/01/10 05:56:49;;;;;;;40.55;21.40;;;;;;;9.66;95.53;99833.75;4993256;28;20181;-86
2022/01/10 05:59:14;;;;;;;34.83;19.67;;;;;;;9.21;91.28;99771.28;4992434;28;20589;-84
2022/01/10 06:01:42;;;;;;;41.47;20.92;;;;;;;9.45;91.91;99856.78;4993314;28;20266;-84
2022/01/10 06:04:08;;;;;;;36.47;19.77;;;;;;;9.11;91.80;99824.09;4993701;28;20173;-84
2022/01/10 06:06:33;;;;;;;39.25;20.80;;;;;;;8.53;92.98;99754.59;4993807;28;20243;-84
2022/01/10 06:08:59;;;;;;;37.92;21.23;;;;;;;9.00;93.88;99866.63;4975905;28;20452;-83
2022/01/10 06:11:24;;;;;;;37.55;20.65;;;;;;;8.84;94.78;99859.31;4996745;28;20276;-84
2022/01/10 06:13:50;;;;;;;37.05;20.50;;;;;;;8.68;96.32;99861.34;4994035;28;20178;-83
2022/01/10 06:16:16;;;;;;;41.20;19.83;;;;;;;8.65;98.06;99872.19;4976081;28;20633;-86
2022/01/10 06:18:42;;;;;;;36.83;20.13;;;;;;;8.54;98.95;99876.41;4993103;28;20728;-85
2022/01/10 06:21:07;;;;;;;30.42;17.40;;;;;;;8.47;99.63;99876.63;4993769;28;20201;-84
2022/01/10 06:23:36;;;;;;;21.77;13.82;;;;;;;8.42;100.00;99880.44;4999617;28;20240;-84
2022/01/10 06:26:01;;;;;;;20.70;12.63;;;;;;;8.36;100.00;99882.44;4996541;28;20279;-84
2022/01/10 06:28:27;;;;;;;16.10;9.82;;;;;;;8.25;100.00;99871.25;4980969;28;20272;-84
2022/01/10 06:30:52;;;;;;;13.43;8.30;;;;;;;8.14;100.00;99873.66;4994282;28;20178;-86
2022/01/10 06:33:18;;;;;;;11.63;7.40;;;;;;;8.08;100.00;99864.69;4992942;28;20170;-85
2022/01/10 06:35:43;;;;;;;10.60;7.15;;;;;;;8.16;100.00;99890.91;4992652;28;20178;-83
2022/01/10 06:38:09;;;;;;;15.77;8.38;;;;;;;8.05;100.00;99886.50;4995280;28;20169;-84
2022/01/10 06:40:34;;;;;;;12.00;7.35;;;;;;;7.98;100.00;99890.19;4995087;28;20259;-84
2022/01/10 06:43:00;;;;;;;12.30;7.75;;;;;;;7.91;100.00;99885.25;4995232;28;20174;-84
2022/01/10 06:45:25;;;;;;;12.40;8.05;;;;;;;7.90;100.00;99897.91;4975270;28;20267;-83
2022/01/10 06:47:51;;;;;;;12.10;8.13;;;;;;;7.70;100.00;99880.84;4992767;28;20190;-84
2022/01/10 06:50:16;;;;;;;12.65;7.07;;;;;;;7.79;100.00;99904.59;4976876;28;20180;-85
2022/01/10 06:52:42;;;;;;;11.80;7.85;;;;;;;7.80;100.00;99921.69;4992480;28;20166;-83
2022/01/10 06:55:08;;;;;;;11.48;7.25;;;;;;;7.75;100.00;99938.22;4992561;28;20174;-84
2022/01/10 06:57:33;;;;;;;9.30;6.40;;;;;;;7.67;100.00;99918.81;4992852;28;20185;-85
2022/01/10 07:00:01;;;;;;;9.98;7.00;;;;;;;7.50;100.00;99890.13;4974959;28;20185;-83
2022/01/10 07:02:26;;;;;;;11.60;7.32;;;;;;;7.69;100.00;99917.28;4993123;28;20173;-83
2022/01/10 07:04:52;;;;;;;12.35;7.68;;;;;;;7.66;100.00;99922.97;4994265;28;20197;-83
2022/01/10 07:07:17;;;;;;;10.00;6.85;;;;;;;7.63;100.00;99928.72;4996261;28;20217;-83
2022/01/10 07:09:43;;;;;;;17.35;9.07;;;;;;;7.64;100.00;99933.06;4995575;28;20173;-84
2022/01/10 07:12:09;;;;;;;14.43;8.13;;;;;;;7.63;100.00;99928.72;4995434;28;20212;-84
2022/01/10 07:14:35;;;;;;;11.15;7.53;;;;;;;7.51;100.00;99917.41;4995275;28;20209;-83
2022/01/10 07:17:01;;;;;;;18.20;8.38;;;;;;;7.60;100.00;99946.28;4996172;28;20687;-84
2022/01/10 07:19:29;;;;;;;14.25;7.95;;;;;;;7.46;100.00;99921.19;5001500;28;20181;-84
2022/01/10 07:21:54;;;;;;;14.38;7.32;;;;;;;7.56;100.00;99948.41;4984419;28;20639;-86
2022/01/10 07:24:20;;;;;;;9.95;6.28;;;;;;;7.42;100.00;99930.97;4996331;28;20174;-83
2022/01/10 07:26:46;;;;;;;12.27;5.63;;;;;;;7.53;100.00;99961.75;4995202;28;20267;-84
2022/01/10 07:29:12;;;;;;;9.57;6.20;;;;;;;7.51;100.00;99963.31;4996041;28;20600;-84
2022/01/10 07:31:40;;;;;;;9.48;6.38;;;;;;;7.52;100.00;99961.63;4978304;28;20185;-83
2022/01/10 07:34:07;;;;;;;11.88;5.68;;;;;;;7.45;100.00;99954.19;4995512;28;20173;-84
2022/01/10 07:36:32;;;;;;;10.65;6.82;;;;;;;7.53;100.00;99973.63;4995113;28;20177;-81
2022/01/10 07:38:58;;;;;;;9.27;5.60;;;;;;;7.50;100.00;99971.69;4995394;28;20181;-84
2022/01/10 07:41:24;;;;;;;6.22;4.75;;;;;;;7.49;100.00;99975.00;4995773;28;20177;-85
2022/01/10 07:43:50;;;;;;;7.82;5.68;;;;;;;7.49;100.00;99975.00;4996469;28;20264;-87
2022/01/10 07:46:15;;;;;;;6.07;4.55;;;;;;;7.40;100.00;99981.81;4995328;28;20212;-83
2022/01/10 07:48:43;;;;;;;7.07;4.20;;;;;;;7.46;100.00;99986.56;4995961;28;20174;-84
2022/01/10 07:51:09;;;;;;;6.38;4.47;;;;;;;7.40;100.00;99984.34;4996656;28;20641;-85
2022/01/10 07:53:36;;;;;;;5.88;4.72;;;;;;;7.43;100.00;99997.38;4995725;28;20255;-82
2022/01/10 07:56:05;;;;;;;5.10;4.00;;;;;;;7.31;100.00;99979.28;4977971;28;20183;-84
2022/01/10 07:58:31;;;;;;;6.97;4.60;;;;;;;7.33;100.00;99987.09;4978830;28;20174;-83
2022/01/10 08:00:57;;;;;;;7.07;4.68;;;;;;;7.42;100.00;99989.59;4996041;28;20177;-85
2022/01/10 08:03:22;;;;;;;7.88;5.10;;;;;;;7.45;100.00;100000.09;4996129;28;20228;-84
2022/01/10 08:05:48;;;;;;;9.48;5.45;;;;;;;7.43;100.00;99999.03;4995445;28;20221;-85
2022/01/10 08:08:13;;;;;;;8.20;5.15;;;;;;;7.40;100.00;99999.63;4979517;28;20653;-82
2022/01/10 08:10:39;;;;;;;9.48;5.60;;;;;;;7.32;100.00;99991.31;4994945;28;20627;-85
2022/01/10 08:13:04;;;;;;;6.93;5.03;;;;;;;7.41;99.99;100001.41;4995671;28;20182;-86
2022/01/10 08:15:30;;;;;;;7.55;5.40;;;;;;;7.39;100.00;100006.41;4996164;28;20181;-84
2022/01/10 08:17:57;;;;;;;6.95;4.93;;;;;;;7.29;100.00;99996.13;4994839;28;20174;-84
2022/01/10 08:20:23;;;;;;;10.18;4.95;;;;;;;7.33;100.00;100004.94;4995948;28;20196;-83
2022/01/10 08:22:49;;;;;;;9.20;5.00;;;;;;;7.31;100.00;100004.78;4977840;28;20240;-85
2022/01/10 08:25:16;;;;;;;8.57;5.25;;;;;;;7.11;100.00;99980.00;4995275;28;20565;-86
2022/01/10 08:27:42;;;;;;;7.68;5.35;;;;;;;7.16;100.00;99986.44;4995421;28;20507;-85
2022/01/10 08:30:09;;;;;;;8.77;5.97;;;;;;;7.28;100.00;100008.69;4995220;28;20468;-83
2022/01/10 08:32:35;;;;;;;9.95;6.40;;;;;;;6.79;100.00;99927.69;5000142;28;20645;-84
2022/01/10 08:35:01;;;;;;;8.57;5.78;;;;;;;7.02;100.00;99960.41;4999125;28;20201;-85
2022/01/10 08:37:27;;;;;;;10.52;7.13;;;;;;;6.94;100.00;99944.41;4995675;28;20177;-83
2022/01/10 08:39:52;;;;;;;10.02;6.70;;;;;;;7.26;100.00;100000.00;4996148;28;20264;-84
2022/01/10 08:42:20;;;;;;;10.77;6.97;;;;;;;7.22;100.00;100001.38;4994770;28;20196;-84
2022/01/10 08:44:46;;;;;;;15.60;8.45;;;;;;;7.26;99.80;100016.22;4994806;28;20669;-84
2022/01/10 08:47:12;;;;;;;16.90;7.63;;;;;;;7.02;99.87;99986.78;4994384;28;20212;-83
2022/01/10 08:49:38;;;;;;;10.13;6.60;;;;;;;7.22;100.00;100021.75;4994893;28;20177;-86
2022/01/10 08:52:04;;;;;;;12.13;7.43;;;;;;;7.14;100.00;99997.22;4994814;28;20169;-82
2022/01/10 08:54:30;;;;;;;16.70;9.52;;;;;;;7.31;99.82;100024.25;4998124;28;20184;-82
2022/01/10 08:56:55;;;;;;;13.10;7.65;;;;;;;7.00;99.10;99964.47;4977996;28;20173;-85
2022/01/10 08:59:22;;;;;;;10.27;6.13;;;;;;;7.07;98.67;99983.03;4977745;28;20169;-84
2022/01/10 09:01:47;;;;;;;10.65;6.47;;;;;;;7.07;98.45;99994.84;4994287;28;20170;-85
2022/01/10 09:04:16;;;;;;;7.68;5.60;;;;;;;7.19;98.70;100024.00;4994910;28;20217;-85
2022/01/10 09:06:43;;;;;;;11.35;6.32;;;;;;;7.17;98.64;100017.91;4994493;28;20233;-83
2022/01/10 09:09:09;;;;;;;7.78;5.90;;;;;;;7.14;98.73;100009.97;4994548;28;20185;-85
2022/01/10 09:11:35;;;;;;;10.15;5.88;;;;;;;7.03;98.98;100006.41;4992961;28;20566;-84
2022/01/10 09:14:00;;;;;;;9.65;5.97;;;;;;;6.91;99.46;99982.31;4976767;28;20205;-85
2022/01/10 09:16:26;;;;;;;8.90;6.53;;;;;;;6.72;100.00;99950.03;4994015;28;20177;-85
2022/01/10 09:18:51;;;;;;;9.23;6.30;;;;;;;6.89;100.00;99972.00;4993865;28;20665;-86
2022/01/10 09:21:17;;;;;;;7.72;5.35;;;;;;;6.98;98.83;99992.34;4975924;28;20216;-85
2022/01/10 09:23:42;;;;;;;7.57;5.57;;;;;;;7.14;98.84;100010.84;4994388;28;20185;-84
2022/01/10 09:26:08;;;;;;;9.07;6.45;;;;;;;7.12;98.89;100011.47;4993923;28;20201;-85
2022/01/10 09:28:33;;;;;;;10.60;5.82;;;;;;;6.97;99.73;99997.28;4993960;28;20180;-85
2022/01/10 09:30:59;;;;;;;7.97;5.45;;;;;;;7.10;99.57;100018.97;4977227;28;20633;-85
2022/01/10 09:33:24;;;;;;;9.02;6.35;;;;;;;6.96;99.21;99998.03;4994814;28;20200;-85
2022/01/10 09:35:50;;;;;;;8.13;5.00;;;;;;;7.07;99.14;100023.78;4995608;28;20641;-85
2022/01/10 09:38:15;;;;;;;7.82;5.28;;;;;;;6.82;99.57;99976.34;4996799;28;20688;-85
2022/01/10 09:40:43;;;;;;;6.88;5.07;;;;;;;6.93;99.29;100014.81;4996669;28;20185;-84
2022/01/10 09:43:08;;;;;;;10.30;5.13;;;;;;;7.01;99.06;100022.28;4995035;28;20269;-84
2022/01/10 09:45:34;;;;;;;8.70;6.00;;;;;;;6.99;100.00;100029.78;4979559;28;20229;-84
2022/01/10 09:48:00;;;;;;;11.43;7.53;;;;;;;7.02;99.09;100037.72;4995791;28;20177;-84
2022/01/10 09:50:26;;;;;;;12.88;6.72;;;;;;;7.00;99.15;100021.38;5004471;28;20685;-82
2022/01/10 09:52:51;;;;;;;11.30;6.25;;;;;;;6.87;99.25;100004.06;5005095;28;20216;-81
2022/01/10 09:55:18;;;;;;;11.23;6.45;;;;;;;6.88;97.86;99999.84;5003864;28;20185;-84
2022/01/10 09:57:44;;;;;;;12.32;7.63;;;;;;;7.01;98.31;100023.22;5006924;28;20173;-83
2022/01/10 10:00:11;;;;;;;11.00;6.38;;;;;;;6.97;97.48;100025.31;5008978;28;20173;-83
2022/01/10 10:02:38;;;;;;;11.93;7.32;;;;;;;6.72;99.19;99992.41;5009477;28;20181;-83
2022/01/10 10:05:10;;;;;;;13.88;7.63;;;;;;;6.78;99.17;100015.91;5006494;28;20200;-85
2022/01/10 10:07:37;;;;;;;10.05;6.43;;;;;;;6.68;99.37;99986.13;4997934;28;20560;-85
2022/01/10 10:10:11;;;;;;;7.32;5.47;;;;;;;6.85;98.99;100036.13;4980812;28;20245;-85
2022/01/10 10:12:39;;;;;;;12.10;7.22;;;;;;;6.68;99.13;99998.88;4996659;28;20156;-86
2022/01/10 10:15:07;;;;;;;10.73;7.27;;;;;;;6.59;99.69;99979.28;4999913;28;20173;-87
2022/01/10 10:17:35;;;;;;;13.25;7.20;;;;;;;6.90;99.25;100019.63;5003974;28;20185;-83
2022/01/10 10:20:07;;;;;;;11.50;7.20;;;;;;;6.89;99.92;100040.75;5006038;28;20216;-84
2022/01/10 10:22:32;;;;;;;10.02;6.65;;;;;;;6.86;99.63;100032.81;5004241;28;20189;-84
2022/01/10 10:24:58;;;;;;;10.75;7.22;;;;;;;6.88;100.00;100036.41;4988702;28;20180;-82
2022/01/10 10:27:24;;;;;;;11.10;6.53;;;;;;;6.86;99.22;100047.22;5003623;28;20205;-82
2022/01/10 10:29:50;;;;;;;11.30;7.35;;;;;;;6.56;99.28;99992.59;5008953;28;20274;-84
2022/01/10 10:32:16;;;;;;;10.70;6.82;;;;;;;6.80;99.12;100041.53;4987339;28;20173;-83
2022/01/10 10:34:42;;;;;;;11.80;7.63;;;;;;;6.75;99.53;100032.56;5000496;28;20204;-84
2022/01/10 10:37:15;;;;;;;13.60;7.43;;;;;;;6.74;99.81;100021.47;4995018;28;20192;-86
2022/01/10 10:39:44;;;;;;;11.75;7.20;;;;;;;6.78;99.54;100036.28;4995167;28;20177;-85
2022/01/10 10:42:15;;;;;;;11.45;7.38;;;;;;;6.75;99.41;100027.47;4980650;28;20181;-84
2022/01/10 10:44:44;;;;;;;12.20;7.27;;;;;;;6.74;100.00;100034.19;4997660;28;20173;-84
2022/01/10 10:47:16;;;;;;;16.60;8.55;;;;;;;6.60;100.00;100009.06;4980534;28;20592;-84
2022/01/10 10:49:46;;;;;;;16.85;8.35;;;;;;;6.74;99.94;100036.75;4996706;28;20193;-84
2022/01/10 10:52:12;;;;;;;10.57;7.63;;;;;;;6.65;99.57;100016.41;4992421;28;20158;-83
2022/01/10 10:54:40;;;;;;;16.45;7.72;;;;;;;6.19;100.00;99938.19;5014737;28;20189;-82
2022/01/10 10:57:07;;;;;;;11.45;8.07;;;;;;;6.74;99.00;100038.41;5015544;28;20185;-83
2022/01/10 10:59:36;;;;;;;11.52;7.85;;;;;;;6.65;99.43;100036.75;5017008;28;20177;-83
2022/01/10 11:02:03;;;;;;;14.20;8.68;;;;;;;6.65;99.56;100046.94;5011941;28;20224;-83
2022/01/10 11:04:32;;;;;;;13.95;8.95;;;;;;;6.59;100.00;100036.16;5019452;28;20185;-81
2022/01/10 11:06:58;;;;;;;12.75;8.13;;;;;;;6.67;99.89;100045.44;5020717;28;20212;-83
2022/01/10 11:09:25;;;;;;;14.57;8.77;;;;;;;6.63;99.90;100039.91;5020129;28;20161;-82
2022/01/10 11:11:51;;;;;;;17.95;9.25;;;;;;;6.64;100.00;100042.63;5020343;28;20229;-81
2022/01/10 11:14:18;;;;;;;13.18;8.45;;;;;;;6.64;100.00;100052.78;5018383;28;20188;-83
2022/01/10 11:16:46;;;;;;;18.27;9.90;;;;;;;6.67;100.00;100042.00;5015355;28;20177;-82
2022/01/10 11:19:18;;;;;;;12.70;8.80;;;;;;;6.71;100.00;100051.72;5014518;28;20186;-79
2022/01/10 11:22:07;;;;;;;15.90;9.00;;;;;;;6.54;100.00;100014.50;5012799;28;20201;-81
2022/01/10 11:24:47;;;;;;;14.52;9.23;;;;;;;6.75;100.00;100035.09;5016921;28;20164;-82
2022/01/10 11:27:33;;;;;;;16.40;9.88;;;;;;;6.74;100.00;100046.94;5017694;28;20212;-82
2022/01/10 11:30:18;;;;;;;16.33;10.05;;;;;;;6.70;100.00;100050.84;5018960;28;20177;-84
2022/01/10 11:32:57;;;;;;;14.93;9.00;;;;;;;6.49;99.27;100023.31;5019352;28;20161;-82